Time;durP1;ratioP1;P1;durP2;ratioP2;P2;SDS_P1;SDS_P2;PMS_P1;PMS_P2;Temp;Humidity;BMP_temperature;BMP_pressure;BME280_temperature;BME280_humidity;BME280_pressure;Samples;Min_cycle;Max_cycle;Signal;HPM_P1;HPM_P2
2022/07/06 00:01:50;;;;;;;;;4.00;4.00;;;;;25.40;60.71;98554.75;4902309;28;102515;-56
2022/07/06 00:04:18;;;;;;;;;3.67;3.67;;;;;25.42;60.82;98548.94;4916854;28;104509;-55
2022/07/06 00:06:45;;;;;;;;;4.00;4.00;;;;;25.39;60.84;98547.59;4904135;28;103425;-56
2022/07/06 00:09:12;;;;;;;;;4.00;4.00;;;;;25.40;60.91;98548.41;4910891;28;102281;-55
2022/07/06 00:11:39;;;;;;;;;5.00;5.00;;;;;25.37;60.99;98549.81;4932941;28;102771;-55
2022/07/06 00:14:07;;;;;;;;;4.00;4.00;;;;;25.38;61.06;98548.72;4927893;28;104268;-55
2022/07/06 00:16:34;;;;;;;;;3.00;3.00;;;;;25.36;60.99;98556.47;4940271;28;102508;-55
2022/07/06 00:19:01;;;;;;;;;4.33;4.33;;;;;25.35;60.93;98549.31;4929266;28;104872;-55
2022/07/06 00:21:29;;;;;;;;;4.00;4.00;;;;;25.36;60.84;98539.03;4938582;28;102456;-55
2022/07/06 00:23:56;;;;;;;;;4.33;4.33;;;;;25.36;60.70;98545.41;4937392;28;104145;-55
2022/07/06 00:26:23;;;;;;;;;3.00;3.00;;;;;25.36;60.92;98547.34;4925671;28;102365;-55
2022/07/06 00:28:50;;;;;;;;;4.00;4.00;;;;;25.35;60.66;98552.09;4938853;28;102534;-55
2022/07/06 00:31:18;;;;;;;;;3.67;3.33;;;;;25.34;60.63;98547.66;4935165;28;102284;-56
2022/07/06 00:33:45;;;;;;;;;4.00;4.00;;;;;25.34;60.91;98547.66;4938182;28;104035;-55
2022/07/06 00:36:12;;;;;;;;;4.33;4.33;;;;;25.34;60.69;98547.66;4929606;28;102491;-55
2022/07/06 00:38:39;;;;;;;;;4.67;4.00;;;;;25.35;60.71;98556.78;4939183;28;102417;-55
2022/07/06 00:41:07;;;;;;;;;5.00;5.00;;;;;25.32;60.79;98549.88;4925309;28;102498;-55
2022/07/06 00:43:57;;;;;;;;;4.33;4.33;;;;;25.34;60.61;98555.97;4936685;28;104123;-55
2022/07/06 00:46:30;;;;;;;;;3.67;3.67;;;;;25.35;60.81;98552.09;4929679;28;104074;-55
2022/07/06 00:48:58;;;;;;;;;3.33;3.33;;;;;25.33;61.04;98555.13;4919399;28;102789;-55
2022/07/06 00:51:29;;;;;;;;;3.33;3.33;;;;;25.33;60.87;98551.53;4926368;28;102323;-55
2022/07/06 00:54:02;;;;;;;;;4.00;4.00;;;;;25.35;60.69;98554.03;4927892;28;104235;-55
2022/07/06 00:56:31;;;;;;;;;4.33;4.33;;;;;25.35;60.69;98551.25;4918480;28;102282;-55
2022/07/06 00:59:00;;;;;;;;;3.33;3.33;;;;;25.35;60.34;98557.63;4933075;28;102064;-55
2022/07/06 01:01:27;;;;;;;;;5.00;4.00;;;;;25.36;60.58;98558.41;4916541;28;110765;-55
2022/07/06 01:03:54;;;;;;;;;5.00;5.00;;;;;25.33;60.45;98565.38;4896946;28;103818;-55
2022/07/06 01:06:21;;;;;;;;;2.00;2.00;;;;;25.33;60.66;98570.91;4915956;28;102359;-55
2022/07/06 01:08:48;;;;;;;;;4.00;4.00;;;;;25.32;60.36;98563.72;4908409;28;102444;-55
2022/07/06 01:11:16;;;;;;;;;5.00;5.00;;;;;25.30;60.46;98579.81;4919531;28;103191;-55
2022/07/06 01:13:43;;;;;;;;;5.00;3.67;;;;;25.31;60.32;98573.16;4896923;28;104069;-55
2022/07/06 01:16:10;;;;;;;;;5.00;4.33;;;;;25.29;60.40;98567.09;4929613;28;102873;-55
2022/07/06 01:18:37;;;;;;;;;4.00;4.00;;;;;25.30;60.66;98563.22;4926858;28;103924;-55
2022/07/06 01:21:11;;;;;;;;;6.00;5.67;;;;;25.29;60.49;98558.81;4931174;28;102651;-55
2022/07/06 01:23:46;;;;;;;;;5.00;5.00;;;;;25.28;60.60;98554.38;4935872;28;104228;-55
2022/07/06 01:26:20;;;;;;;;;4.33;4.33;;;;;25.27;60.81;98556.31;4964849;28;102124;-55
2022/07/06 01:28:49;;;;;;;;;7.00;5.00;;;;;25.29;60.66;98553.25;4937849;28;103948;-55
2022/07/06 01:31:21;;;;;;;;;5.33;5.33;;;;;25.29;60.54;98559.63;4930434;28;102355;-55
2022/07/06 01:33:49;;;;;;;;;4.00;4.00;;;;;25.30;60.46;98563.22;4932897;28;108915;-55
2022/07/06 01:36:16;;;;;;;;;5.00;5.00;;;;;25.28;60.49;98562.69;4923664;28;103218;-55
2022/07/06 01:38:59;;;;;;;;;4.67;4.67;;;;;25.27;60.34;98552.72;4929387;28;102119;-55
2022/07/06 01:41:26;;;;;;;;;4.67;4.67;;;;;25.26;60.40;98559.41;4925244;28;102660;-55
2022/07/06 01:43:53;;;;;;;;;4.00;4.00;;;;;25.24;60.20;98568.00;4929362;28;103243;-55
2022/07/06 01:46:21;;;;;;;;;4.33;3.67;;;;;25.23;60.45;98566.34;4927502;28;102295;-55
2022/07/06 01:48:49;;;;;;;;;5.33;5.33;;;;;25.26;60.54;98559.41;4934132;28;104048;-55
2022/07/06 01:51:16;;;;;;;;;6.00;5.00;;;;;25.23;60.34;98554.44;4931227;28;102787;-55
2022/07/06 01:53:43;;;;;;;;;4.00;4.00;;;;;25.23;60.36;98554.44;4927848;28;104132;-55
2022/07/06 01:56:10;;;;;;;;;4.00;4.00;;;;;25.25;60.59;98557.75;4959641;28;102215;-55
2022/07/06 01:58:38;;;;;;;;;5.00;4.00;;;;;25.25;60.78;98557.75;4923909;28;102392;-55
2022/07/06 02:01:16;;;;;;;;;4.33;4.33;;;;;25.24;60.34;98558.88;4924974;28;102253;-55
2022/07/06 02:03:43;;;;;;;;;3.67;3.67;;;;;25.23;60.56;98549.72;4934017;28;104011;-55
2022/07/06 02:06:11;;;;;;;;;5.00;5.00;;;;;25.24;60.30;98548.63;4932532;28;102103;-55
2022/07/06 02:08:39;;;;;;;;;4.67;4.67;;;;;25.25;60.20;98552.22;4926877;28;103568;-56
2022/07/06 02:11:06;;;;;;;;;5.00;4.00;;;;;25.26;60.12;98553.88;4938048;28;102484;-55
2022/07/06 02:13:34;;;;;;;;;4.67;4.67;;;;;25.22;60.28;98553.63;4929888;28;104193;-55
2022/07/06 02:16:01;;;;;;;;;5.67;5.00;;;;;25.22;60.10;98556.38;4922446;28;102371;-55
2022/07/06 02:18:28;;;;;;;;;4.33;4.33;;;;;25.21;59.93;98548.41;4926981;28;102385;-55
2022/07/06 02:20:56;;;;;;;;;6.00;5.00;;;;;25.18;60.03;98560.88;4934625;28;102628;-56
2022/07/06 02:23:23;;;;;;;;;4.33;4.00;;;;;25.22;60.16;98561.09;4941578;28;104064;-55
2022/07/06 02:25:50;;;;;;;;;4.33;4.33;;;;;25.19;60.24;98550.63;4934997;28;102188;-55
2022/07/06 02:28:17;;;;;;;;;6.67;6.33;;;;;25.17;60.28;98550.13;4927807;28;102570;-56
2022/07/06 02:30:45;;;;;;;;;3.00;3.00;;;;;25.17;60.60;98553.69;4940045;28;102476;-55
2022/07/06 02:33:12;;;;;;;;;5.67;5.67;;;;;25.18;60.42;98547.03;4933200;28;104082;-55
2022/07/06 02:35:42;;;;;;;;;5.00;5.00;;;;;25.19;60.43;98550.63;4935951;28;102189;-55
2022/07/06 02:38:10;;;;;;;;;6.00;5.00;;;;;25.18;60.51;98551.75;4942407;28;103274;-55
2022/07/06 02:40:38;;;;;;;;;5.67;5.00;;;;;25.18;60.42;98551.75;4931494;28;102640;-55
2022/07/06 02:43:05;;;;;;;;;5.00;5.00;;;;;25.15;60.19;98546.81;4938714;28;104154;-55
2022/07/06 02:45:32;;;;;;;;;5.33;5.00;;;;;25.14;60.54;98556.22;4939632;28;102503;-55
2022/07/06 02:47:59;;;;;;;;;5.67;5.33;;;;;25.12;59.95;98551.00;4933595;28;104978;-55
2022/07/06 02:50:26;;;;;;;;;6.00;6.00;;;;;25.14;60.13;98553.47;4939783;28;102472;-55
2022/07/06 02:52:54;;;;;;;;;4.67;4.00;;;;;25.15;59.86;98544.88;4935997;28;104169;-55
2022/07/06 02:55:22;;;;;;;;;6.00;6.00;;;;;25.12;59.98;98552.94;4929130;28;102477;-55
2022/07/06 02:57:49;;;;;;;;;5.00;5.00;;;;;25.13;60.11;98551.81;4929450;28;110787;-55
2022/07/06 03:00:16;;;;;;;;;5.00;5.00;;;;;25.13;59.97;98560.09;4930379;28;103134;-55
2022/07/06 03:02:43;;;;;;;;;3.67;3.00;;;;;25.11;60.48;98565.97;4933085;28;104075;-55
2022/07/06 03:05:10;;;;;;;;;5.67;5.00;;;;;25.11;60.29;98568.72;4942549;28;103096;-56
2022/07/06 03:07:38;;;;;;;;;5.00;5.00;;;;;25.11;60.62;98565.13;4935041;28;102231;-55
2022/07/06 03:10:05;;;;;;;;;5.00;5.00;;;;;25.12;60.58;98556.53;4935583;28;103951;-56
2022/07/06 03:12:32;;;;;;;;;4.33;3.67;;;;;25.11;60.43;98562.38;4935575;28;104225;-55
2022/07/06 03:14:59;;;;;;;;;4.00;4.00;;;;;25.13;60.18;98573.94;4931848;28;102715;-55
2022/07/06 03:17:26;;;;;;;;;4.00;4.00;;;;;25.13;60.27;98568.41;4939033;28;102422;-56
2022/07/06 03:19:53;;;;;;;;;5.00;4.00;;;;;25.11;60.07;98565.97;4943638;28;102393;-55
2022/07/06 03:22:20;;;;;;;;;5.00;5.00;;;;;25.11;59.99;98568.72;4943822;28;104037;-55
2022/07/06 03:24:47;;;;;;;;;4.00;4.00;;;;;25.11;59.81;98573.44;4941343;28;102317;-55
2022/07/06 03:27:15;;;;;;;;;6.33;6.00;;;;;25.10;59.74;98583.66;4942818;28;102242;-55
2022/07/06 03:29:42;;;;;;;;;5.00;5.00;;;;;25.08;60.12;98582.34;4945015;28;102489;-55
2022/07/06 03:32:09;;;;;;;;;5.00;5.00;;;;;25.07;59.97;98581.50;4942335;28;104027;-55
2022/07/06 03:34:36;;;;;;;;;6.33;6.00;;;;;25.09;60.02;98583.97;4931028;28;102199;-55
2022/07/06 03:37:03;;;;;;;;;5.00;5.00;;;;;25.09;60.18;98583.97;4927344;28;102650;-55
2022/07/06 03:39:30;;;;;;;;;4.67;4.00;;;;;25.08;60.32;98585.09;4911728;28;102897;-56
2022/07/06 03:41:57;;;;;;;;;5.00;5.00;;;;;25.08;60.32;98593.41;4936400;28;104209;-56
2022/07/06 03:44:24;;;;;;;;;4.33;4.33;;;;;25.08;60.44;98582.34;4939677;28;102412;-56
2022/07/06 03:46:55;;;;;;;;;7.00;6.00;;;;;25.08;60.39;98585.91;4934149;28;102699;-55
2022/07/06 03:49:24;;;;;;;;;5.00;5.00;;;;;25.09;59.98;98587.56;4935943;28;103134;-56
2022/07/06 03:51:52;;;;;;;;;6.00;5.00;;;;;25.08;60.20;98587.88;4947727;28;107285;-55
2022/07/06 03:54:19;;;;;;;;;4.67;4.67;;;;;25.06;60.22;98585.38;4932490;28;102174;-55
2022/07/06 03:56:46;;;;;;;;;4.67;4.00;;;;;25.06;60.02;98582.63;4944609;28;102181;-56
2022/07/06 03:59:14;;;;;;;;;7.33;5.67;;;;;25.06;60.20;98570.72;4940994;28;102146;-55
2022/07/06 04:01:41;;;;;;;;;4.67;4.67;;;;;25.06;59.87;98579.03;4929870;28;104353;-56
2022/07/06 04:04:08;;;;;;;;;5.67;5.33;;;;;25.04;60.17;98581.25;4929671;28;103463;-55
2022/07/06 04:06:35;;;;;;;;;4.67;4.67;;;;;25.04;60.23;98584.84;4929266;28;103509;-56
2022/07/06 04:09:02;;;;;;;;;5.00;4.67;;;;;25.08;60.52;98583.13;4931741;28;102359;-56
2022/07/06 04:11:29;;;;;;;;;5.00;5.00;;;;;25.07;59.80;98577.91;4927935;28;104170;-56
2022/07/06 04:13:56;;;;;;;;;4.00;4.00;;;;;25.07;60.29;98581.50;4934532;28;103980;-56
2022/07/06 04:16:23;;;;;;;;;6.00;5.67;;;;;25.11;60.43;98584.50;4935037;28;103201;-56
2022/07/06 04:18:51;;;;;;;;;4.67;4.67;;;;;25.11;60.47;98590.03;4929933;28;102492;-55
2022/07/06 04:21:18;;;;;;;;;3.67;3.67;;;;;25.10;60.34;98593.91;4931054;28;104187;-55
2022/07/06 04:23:45;;;;;;;;;4.00;3.67;;;;;25.09;60.64;98589.50;4930342;28;102475;-55
2022/07/06 04:26:12;;;;;;;;;3.33;3.33;;;;;25.12;60.32;98597.22;4930735;28;105351;-55
2022/07/06 04:28:39;;;;;;;;;4.00;4.00;;;;;25.10;60.25;98605.81;4930075;28;102572;-55
2022/07/06 04:31:06;;;;;;;;;3.33;3.33;;;;;25.09;60.23;98608.84;4905118;28;104022;-55
2022/07/06 04:33:34;;;;;;;;;3.00;3.00;;;;;25.08;60.12;98613.56;4942702;28;102032;-56
2022/07/06 04:36:01;;;;;;;;;4.33;4.33;;;;;25.07;60.24;98623.00;4929244;28;102526;-56
2022/07/06 04:38:28;;;;;;;;;5.00;5.00;;;;;25.07;60.14;98633.25;4939714;28;102709;-56
2022/07/06 04:40:55;;;;;;;;;4.00;4.00;;;;;25.07;60.06;98633.25;4936359;28;108891;-56
2022/07/06 04:43:22;;;;;;;;;7.00;5.00;;;;;25.07;60.13;98631.31;4942908;28;103379;-55
2022/07/06 04:45:49;;;;;;;;;5.67;5.00;;;;;25.07;60.38;98642.38;4943974;28;102135;-56
2022/07/06 04:48:17;;;;;;;;;5.00;5.00;;;;;25.06;60.35;98648.19;4935913;28;104790;-55
2022/07/06 04:50:45;;;;;;;;;5.00;5.00;;;;;25.05;60.56;98643.78;4930749;28;104070;-55
2022/07/06 04:53:12;;;;;;;;;4.00;4.00;;;;;25.04;60.82;98642.13;4943912;28;102542;-55
2022/07/06 04:55:39;;;;;;;;;5.00;5.00;;;;;25.03;60.74;98640.50;4940970;28;102132;-55
2022/07/06 04:58:06;;;;;;;;;4.00;4.00;;;;;25.02;61.04;98638.84;4946649;28;102155;-55
2022/07/06 05:00:33;;;;;;;;;4.00;4.00;;;;;25.03;61.08;98641.31;4940738;28;104828;-56
2022/07/06 05:03:00;;;;;;;;;3.00;3.00;;;;;25.02;61.16;98642.44;4942614;28;102112;-56
2022/07/06 05:05:27;;;;;;;;;5.00;5.00;;;;;25.03;60.78;98637.72;4946290;28;102185;-58
2022/07/06 05:07:54;;;;;;;;;5.00;5.00;;;;;25.00;61.06;98643.84;4938574;28;103568;-55
2022/07/06 05:10:22;;;;;;;;;3.67;3.67;;;;;25.00;60.85;98649.38;4940965;28;104048;-55
2022/07/06 05:12:49;;;;;;;;;4.00;4.00;;;;;25.00;60.89;98650.19;4933456;28;102393;-55
2022/07/06 05:15:16;;;;;;;;;4.67;4.67;;;;;24.99;60.90;98654.06;4938793;28;102631;-55
2022/07/06 05:17:43;;;;;;;;;4.00;4.00;;;;;24.99;60.93;98653.28;4936157;28;102222;-56
2022/07/06 05:20:10;;;;;;;;;4.00;4.00;;;;;25.01;61.00;98648.25;4937555;28;104037;-55
2022/07/06 05:22:37;;;;;;;;;5.00;5.00;;;;;25.00;60.92;98649.38;4933868;28;102580;-55
2022/07/06 05:25:11;;;;;;;;;4.00;4.00;;;;;25.00;61.14;98643.84;4932194;28;102337;-56
2022/07/06 05:27:39;;;;;;;;;4.00;4.00;;;;;25.02;60.99;98647.13;4938187;28;102380;-55
2022/07/06 05:30:06;;;;;;;;;4.67;4.00;;;;;25.02;61.04;98647.13;4937225;28;104163;-55
2022/07/06 05:32:33;;;;;;;;;3.00;3.00;;;;;25.02;61.29;98636.06;4939395;28;102521;-55
2022/07/06 05:35:00;;;;;;;;;4.00;4.00;;;;;25.03;60.93;98640.50;4941212;28;102536;-56
2022/07/06 05:37:47;;;;;;;;;3.67;3.00;;;;;25.02;60.96;98644.38;4962884;28;102142;-56
2022/07/06 05:40:14;;;;;;;;;4.67;4.67;;;;;25.03;60.82;98646.03;4932619;28;104268;-56
2022/07/06 05:42:41;;;;;;;;;3.33;3.33;;;;;25.03;60.55;98644.09;4940275;28;102348;-55
2022/07/06 05:45:09;;;;;;;;;3.00;3.00;;;;;25.04;61.12;98639.34;4924857;28;102153;-55
2022/07/06 05:50:21;;;;;;;;;3.33;3.33;;;;;25.02;61.08;98636.06;4934902;28;104081;-55
2022/07/06 05:52:59;;;;;;;;;3.67;3.00;;;;;25.05;60.92;98641.00;4944538;28;105828;-56
2022/07/06 05:55:36;;;;;;;;;3.33;3.33;;;;;25.00;60.86;98639.13;4934459;28;102222;-55
2022/07/06 05:58:03;;;;;;;;;4.00;4.00;;;;;25.00;61.17;98646.59;4942164;28;102628;-56
2022/07/06 06:00:30;;;;;;;;;2.33;2.33;;;;;24.99;61.01;98656.84;4937550;28;104298;-56
2022/07/06 06:02:58;;;;;;;;;3.67;3.67;;;;;24.98;61.17;98641.38;4946113;28;102812;-55
2022/07/06 06:05:25;;;;;;;;;5.33;4.00;;;;;24.99;61.27;98650.50;4935867;28;102446;-55
2022/07/06 06:07:52;;;;;;;;;5.00;5.00;;;;;24.98;61.12;98652.44;4938409;28;102494;-55
2022/07/06 06:10:19;;;;;;;;;4.00;3.33;;;;;24.97;61.10;98650.78;4968173;28;104073;-56
2022/07/06 06:12:46;;;;;;;;;3.00;3.00;;;;;24.98;61.08;98657.16;4938397;28;102080;-55
2022/07/06 06:15:13;;;;;;;;;4.00;4.00;;;;;24.97;60.98;98647.19;4932183;28;102035;-56
2022/07/06 06:17:40;;;;;;;;;2.33;2.33;;;;;24.97;60.92;98650.78;4942437;28;102753;-56
2022/07/06 06:20:10;;;;;;;;;3.33;3.00;;;;;24.97;61.05;98650.78;4936606;28;104090;-56
2022/07/06 06:22:48;;;;;;;;;4.67;4.67;;;;;24.98;60.96;98651.63;4934575;28;102214;-56
2022/07/06 06:25:16;;;;;;;;;5.33;4.00;;;;;24.98;60.77;98646.91;4939218;28;102422;-56
2022/07/06 06:27:43;;;;;;;;;4.00;3.00;;;;;25.00;60.85;98652.13;4945075;28;102517;-56
2022/07/06 06:30:10;;;;;;;;;4.00;4.00;;;;;25.00;60.83;98655.72;4939753;28;104069;-56
2022/07/06 06:32:37;;;;;;;;;4.00;4.00;;;;;25.01;60.93;98653.78;4928163;28;102571;-56
2022/07/06 06:35:05;;;;;;;;;3.33;3.33;;;;;25.02;60.81;98666.50;4941246;28;104305;-56
2022/07/06 06:37:34;;;;;;;;;2.00;2.00;;;;;25.03;60.67;98666.22;4939337;28;102729;-56
2022/07/06 06:40:01;;;;;;;;;2.00;2.00;;;;;25.03;60.69;98666.22;4939375;28;103974;-55
2022/07/06 06:42:28;;;;;;;;;3.33;3.33;;;;;25.02;60.83;98681.16;4942599;28;102048;-56
2022/07/06 06:44:55;;;;;;;;;3.00;3.00;;;;;25.03;60.90;98682.00;4934353;28;102585;-56
2022/07/06 06:47:22;;;;;;;;;3.00;3.00;;;;;25.02;61.08;98686.72;4939747;28;102535;-56
2022/07/06 06:49:49;;;;;;;;;3.00;3.00;;;;;25.01;60.92;98689.75;4941920;28;103601;-56
2022/07/06 06:52:17;;;;;;;;;3.33;3.33;;;;;25.02;60.84;98686.72;4938962;28;102101;-55
2022/07/06 06:55:04;;;;;;;;;2.00;2.00;;;;;25.00;61.11;98685.34;4938066;28;102538;-56
2022/07/06 06:57:31;;;;;;;;;2.33;2.00;;;;;25.02;61.06;98691.41;4941425;28;104005;-57
2022/07/06 06:59:58;;;;;;;;;4.00;4.00;;;;;25.01;60.74;98695.28;4939373;28;103899;-55
2022/07/06 07:02:25;;;;;;;;;3.00;3.00;;;;;25.01;61.02;98687.81;4940284;28;102391;-55
2022/07/06 07:04:52;;;;;;;;;4.00;4.00;;;;;25.00;60.85;98688.09;4938429;28;102405;-55
2022/07/06 07:07:19;;;;;;;;;5.00;4.00;;;;;25.00;60.93;98696.41;4940030;28;102153;-55
2022/07/06 07:09:46;;;;;;;;;4.00;4.00;;;;;25.01;60.53;98700.81;4934114;28;105236;-55
2022/07/06 07:12:14;;;;;;;;;3.33;3.00;;;;;25.02;60.84;98699.72;4939564;28;104167;-55
2022/07/06 07:14:42;;;;;;;;;3.67;2.33;;;;;25.00;60.86;98697.22;4927187;28;102339;-55
2022/07/06 07:17:10;;;;;;;;;3.00;3.00;;;;;25.01;60.75;98696.13;4935826;28;102247;-55
2022/07/06 07:19:38;;;;;;;;;5.00;4.33;;;;;25.01;60.96;98701.66;4935328;28;104185;-56
2022/07/06 07:22:05;;;;;;;;;3.33;3.33;;;;;25.01;60.77;98700.81;4940833;28;102195;-56
2022/07/06 07:24:32;;;;;;;;;3.00;3.00;;;;;25.00;60.52;98699.16;4942080;28;102666;-55
2022/07/06 07:26:59;;;;;;;;;4.00;4.00;;;;;24.98;60.74;98713.31;4942865;28;102725;-55
2022/07/06 07:29:26;;;;;;;;;1.00;1.00;;;;;24.99;60.78;98711.38;4943137;28;104070;-55
2022/07/06 07:31:53;;;;;;;;;3.00;3.00;;;;;24.99;60.42;98716.91;4944908;28;102379;-56
2022/07/06 07:34:20;;;;;;;;;3.33;3.33;;;;;24.97;60.61;98728.25;4933725;28;102224;-55
2022/07/06 07:36:47;;;;;;;;;3.00;3.00;;;;;24.99;60.62;98720.47;4943092;28;102524;-55
2022/07/06 07:39:14;;;;;;;;;3.33;3.33;;;;;25.00;60.48;98726.84;4943093;28;104126;-55
2022/07/06 07:41:42;;;;;;;;;2.33;2.33;;;;;25.02;60.33;98727.38;4936616;28;103550;-55
2022/07/06 07:44:09;;;;;;;;;3.00;3.00;;;;;25.04;60.56;98736.19;4937704;28;103860;-55
2022/07/06 07:46:40;;;;;;;;;3.67;3.33;;;;;25.02;60.34;98738.44;4936740;28;102257;-56
2022/07/06 07:49:07;;;;;;;;;4.00;4.00;;;;;25.02;60.57;98738.44;4942312;28;104139;-56
2022/07/06 07:51:34;;;;;;;;;3.33;3.33;;;;;25.02;60.47;98753.09;4946552;28;102507;-57
2022/07/06 07:54:01;;;;;;;;;4.67;4.67;;;;;25.01;60.61;98745.91;4944835;28;102600;-55
2022/07/06 07:56:28;;;;;;;;;3.00;3.00;;;;;25.02;60.48;98749.50;4941433;28;102552;-56
2022/07/06 07:58:55;;;;;;;;;3.67;3.00;;;;;25.01;60.49;98751.44;4940967;28;104158;-55
2022/07/06 08:01:22;;;;;;;;;3.33;3.33;;;;;25.02;60.60;98747.56;4939783;28;102326;-55
2022/07/06 08:03:49;;;;;;;;;2.33;2.33;;;;;25.00;60.35;98757.25;4939124;28;102648;-55
2022/07/06 08:06:16;;;;;;;;;3.00;3.00;;;;;25.00;60.34;98757.25;4937900;28;102149;-55
2022/07/06 08:08:44;;;;;;;;;3.00;2.33;;;;;25.00;60.38;98776.63;4940358;28;104173;-56
2022/07/06 08:11:11;;;;;;;;;4.00;4.00;;;;;24.98;60.01;98771.41;4939693;28;102153;-56
2022/07/06 08:13:44;;;;;;;;;4.00;4.00;;;;;24.99;60.37;98758.41;4930196;28;102208;-55
2022/07/06 08:16:11;;;;;;;;;3.00;3.00;;;;;24.98;60.39;98763.13;4943802;28;102221;-56
2022/07/06 08:18:38;;;;;;;;;4.00;4.00;;;;;24.99;60.27;98772.25;4929633;28;104204;-56
2022/07/06 08:21:06;;;;;;;;;3.67;3.67;;;;;24.98;60.47;98768.66;4937737;28;102282;-56
2022/07/06 08:23:53;;;;;;;;;4.00;4.00;;;;;24.97;60.43;98768.94;4942385;28;102323;-56
2022/07/06 08:26:21;;;;;;;;;2.00;2.00;;;;;24.98;60.15;98767.81;4937662;28;102449;-55
2022/07/06 08:28:48;;;;;;;;;4.00;4.00;;;;;24.98;60.13;98778.88;4937375;28;104060;-55
2022/07/06 08:31:15;;;;;;;;;3.33;3.33;;;;;24.99;60.17;98772.25;4936906;28;102273;-55
2022/07/06 08:34:02;;;;;;;;;3.00;3.00;;;;;25.00;60.00;98769.16;4943748;28;102478;-55
2022/07/06 08:36:29;;;;;;;;;4.00;4.00;;;;;25.02;59.92;98760.59;4940224;28;102159;-55
2022/07/06 08:38:56;;;;;;;;;4.00;3.00;;;;;25.01;59.99;98743.16;4940596;28;104026;-55
2022/07/06 08:41:25;;;;;;;;;4.00;4.00;;;;;25.02;59.94;98747.56;4940690;28;102483;-55
2022/07/06 08:43:52;;;;;;;;;4.00;4.00;;;;;25.03;59.52;98756.72;4932096;28;102237;-56
2022/07/06 08:46:20;;;;;;;;;3.00;2.67;;;;;25.04;59.74;98761.94;4940979;28;102418;-55
2022/07/06 08:48:47;;;;;;;;;3.33;3.33;;;;;25.07;59.48;98755.00;4936375;28;104062;-55
2022/07/06 08:51:15;;;;;;;;;4.00;3.00;;;;;25.06;59.45;98761.66;4940686;28;102645;-55
2022/07/06 08:53:42;;;;;;;;;3.00;3.00;;;;;25.05;59.72;98748.91;4929689;28;102203;-55
2022/07/06 08:56:09;;;;;;;;;4.00;4.00;;;;;25.07;59.76;98755.00;4941537;28;102174;-56
2022/07/06 08:58:36;;;;;;;;;3.00;3.00;;;;;25.06;59.47;98751.41;4938902;28;104229;-56
2022/07/06 09:01:03;;;;;;;;;4.00;4.00;;;;;25.06;59.35;98745.88;4906917;28;103054;-55
2022/07/06 09:03:31;;;;;;;;;2.67;2.67;;;;;25.05;59.57;98738.69;4938435;28;102561;-55
2022/07/06 09:05:59;;;;;;;;;2.33;2.00;;;;;25.06;59.56;98742.28;4918951;28;102260;-55
2022/07/06 09:08:30;;;;;;;;;3.33;3.33;;;;;25.05;59.41;98729.56;4953245;28;104226;-56
2022/07/06 09:10:57;;;;;;;;;3.33;3.00;;;;;25.04;59.33;98739.78;4907604;28;102357;-55
2022/07/06 09:13:25;;;;;;;;;4.00;4.00;;;;;25.05;59.57;98735.09;4943957;28;102112;-56
2022/07/06 09:15:53;;;;;;;;;3.33;2.67;;;;;25.04;59.63;98720.44;4944071;28;102201;-55
2022/07/06 09:18:42;;;;;;;;;2.00;2.00;;;;;25.04;59.61;98723.19;4929750;28;110191;-56
2022/07/06 09:21:09;;;;;;;;;4.67;4.00;;;;;25.05;59.20;98718.50;4938311;28;102317;-56
2022/07/06 09:23:37;;;;;;;;;4.00;3.33;;;;;25.05;59.08;98708.25;4938015;28;103434;-56
2022/07/06 09:26:06;;;;;;;;;4.00;4.00;;;;;25.06;59.19;98709.06;4942612;28;102459;-55
2022/07/06 09:28:43;;;;;;;;;3.00;3.00;;;;;25.06;58.89;98706.31;4935637;28;108873;-56
2022/07/06 09:31:11;;;;;;;;;4.00;3.67;;;;;25.07;58.62;98703.25;4926174;28;102556;-55
2022/07/06 09:34:06;;;;;;;;;3.00;3.00;;;;;25.06;58.40;98695.25;4941780;28;102242;-55
2022/07/06 09:36:38;;;;;;;;;3.00;3.00;;;;;25.08;58.44;98701.31;4929289;28;102267;-55
2022/07/06 09:39:25;;;;;;;;;3.00;3.00;;;;;25.08;58.51;98702.13;4972232;28;109350;-55
2022/07/06 09:41:56;;;;;;;;;4.00;4.00;;;;;25.08;58.53;98704.88;4967754;28;102482;-57
2022/07/06 09:44:25;;;;;;;;;3.00;3.00;;;;;25.10;58.18;98696.31;4937725;28;102935;-55
2022/07/06 09:46:54;;;;;;;;;4.67;3.67;;;;;25.09;58.53;98700.19;4946272;28;102562;-56
2022/07/06 09:49:22;;;;;;;;;4.00;4.00;;;;;25.10;58.58;98707.38;4937742;28;104142;-55
2022/07/06 09:51:53;;;;;;;;;3.67;3.67;;;;;25.10;58.28;98722.03;4939815;28;102935;-56
2022/07/06 09:54:20;;;;;;;;;3.00;1.33;;;;;25.11;58.46;98712.63;4939782;28;102142;-56
2022/07/06 09:56:50;;;;;;;;;2.33;2.33;;;;;25.13;58.05;98709.53;4937602;28;102152;-56
2022/07/06 09:59:21;;;;;;;;;4.00;3.00;;;;;25.13;58.41;98713.13;4942129;28;104315;-56
2022/07/06 10:01:51;;;;;;;;;3.00;3.00;;;;;25.15;58.45;98704.56;4937277;28;102435;-55
2022/07/06 10:04:20;;;;;;;;;3.67;3.67;;;;;25.15;57.96;98710.91;4931808;28;102425;-56
2022/07/06 10:06:48;;;;;;;;;3.00;3.00;;;;;25.17;57.87;98714.19;4944412;28;102302;-56
2022/07/06 10:09:15;;;;;;;;;3.00;3.00;;;;;25.19;57.75;98713.91;4938063;28;104147;-56
2022/07/06 10:11:48;;;;;;;;;3.67;3.67;;;;;25.18;57.57;98707.56;4942562;28;102268;-56
2022/07/06 10:14:18;;;;;;;;;3.00;3.00;;;;;25.20;57.53;98719.16;4933921;28;102323;-56
2022/07/06 10:16:46;;;;;;;;;3.00;3.00;;;;;25.20;57.68;98721.09;4937299;28;102201;-56
2022/07/06 10:19:14;;;;;;;;;3.67;3.00;;;;;25.20;57.83;98723.88;4937327;28;103603;-56
2022/07/06 10:21:41;;;;;;;;;2.33;2.33;;;;;25.19;57.67;98728.59;4940666;28;102421;-56
2022/07/06 10:24:12;;;;;;;;;4.00;3.00;;;;;25.20;57.59;98729.41;4933762;28;103103;-56
2022/07/06 10:26:40;;;;;;;;;2.67;2.67;;;;;25.20;57.58;98723.88;4941640;28;102111;-56
2022/07/06 10:29:08;;;;;;;;;4.00;4.00;;;;;25.21;57.78;98731.06;4935543;28;104152;-57
2022/07/06 10:31:40;;;;;;;;;4.00;4.00;;;;;25.23;57.47;98731.59;4941802;28;102165;-55
2022/07/06 10:34:10;;;;;;;;;4.00;4.00;;;;;25.23;57.50;98726.03;4957026;28;102593;-56
2022/07/06 10:36:38;;;;;;;;;3.67;3.67;;;;;25.24;57.51;98727.69;4950834;28;102252;-57
2022/07/06 10:41:02;;;;;;;;;4.00;4.00;;;;;25.24;57.48;98719.41;4938165;28;108845;-56
2022/07/06 10:41:53;;;;;;;;;3.67;3.00;;;;;25.23;57.60;98718.56;4936674;28;102330;-56
2022/07/06 10:44:21;;;;;;;;;3.00;3.00;;;;;25.25;57.45;98718.28;4933278;28;102249;-56
2022/07/06 10:46:53;;;;;;;;;3.33;3.00;;;;;25.25;57.54;98712.75;4946068;28;102270;-56
2022/07/06 10:49:20;;;;;;;;;3.00;3.00;;;;;25.24;57.51;98713.88;4936224;28;104062;-55
2022/07/06 10:52:07;;;;;;;;;3.00;3.00;;;;;25.25;57.34;98718.28;4941574;28;102333;-58
2022/07/06 10:54:39;;;;;;;;;1.00;1.00;;;;;25.26;57.09;98725.47;4942114;28;102290;-55
2022/07/06 10:57:09;;;;;;;;;3.67;3.00;;;;;25.26;57.47;98731.81;4934037;28;102415;-55
2022/07/06 10:59:37;;;;;;;;;1.67;1.67;;;;;25.27;57.18;98736.25;4934705;28;108955;-58
2022/07/06 11:02:20;;;;;;;;;2.67;2.67;;;;;25.28;57.37;98732.34;4941105;28;103089;-55
2022/07/06 11:04:48;;;;;;;;;2.33;2.33;;;;;25.28;57.54;98745.38;4929508;28;103206;-56
2022/07/06 11:07:19;;;;;;;;;3.00;3.00;;;;;25.29;57.29;98739.56;4935123;28;102425;-56
2022/07/06 11:09:56;;;;;;;;;2.00;2.00;;;;;25.30;57.34;98740.38;4938360;28;104100;-55
2022/07/06 11:12:23;;;;;;;;;1.33;1.33;;;;;25.31;57.10;98744.78;4939922;28;102169;-56
2022/07/06 11:14:51;;;;;;;;;2.00;2.00;;;;;25.31;57.16;98751.13;4934551;28;102451;-56
2022/07/06 11:17:18;;;;;;;;;3.00;2.00;;;;;25.31;57.27;98756.69;4944417;28;102202;-56
2022/07/06 11:19:49;;;;;;;;;2.67;2.33;;;;;25.32;57.04;98749.19;4939622;28;104052;-56
2022/07/06 11:22:18;;;;;;;;;3.00;3.00;;;;;25.32;56.96;98763.88;4936030;28;102352;-55
2022/07/06 11:24:47;;;;;;;;;4.00;3.67;;;;;25.33;57.02;98759.16;4941882;28;102366;-56
2022/07/06 11:27:15;;;;;;;;;2.33;2.33;;;;;25.33;56.96;98748.09;4942138;28;102399;-56
2022/07/06 11:29:44;;;;;;;;;3.33;3.00;;;;;25.33;57.11;98754.44;4940580;28;104130;-56
2022/07/06 11:32:13;;;;;;;;;2.33;2.33;;;;;25.34;56.99;98755.28;4931025;28;102722;-55
2022/07/06 11:34:42;;;;;;;;;2.67;2.67;;;;;25.33;56.83;98748.91;4934816;28;102552;-56